Time;durP1;ratioP1;P1;durP2;ratioP2;P2;SDS_P1;SDS_P2;PMS_P1;PMS_P2;Temp;Humidity;BMP_temperature;BMP_pressure;BME280_temperature;BME280_humidity;BME280_pressure;Samples;Min_cycle;Max_cycle;Signal;HPM_P1;HPM_P2
2022/09/12 00:01:24;;;;;;;10.55;8.00;;;12.40;99.90;;;11.33;100.00;101315.06;5018752;28;20034;-81
2022/09/12 00:03:59;;;;;;;35.28;14.95;;;12.40;99.90;;;11.32;100.00;101313.34;5001502;28;20108;-81
2022/09/12 00:06:32;;;;;;;11.15;7.90;;;12.40;99.90;;;11.31;100.00;101316.91;5000312;28;20045;-80
2022/09/12 00:09:11;;;;;;;11.30;6.70;;;12.40;99.90;;;11.26;100.00;101309.19;5016854;28;20389;-81
2022/09/12 00:11:41;;;;;;;11.32;6.97;;;12.40;99.90;;;11.23;100.00;101310.16;5015823;28;20022;-81
2022/09/12 00:14:09;;;;;;;16.83;9.35;;;12.30;99.90;;;11.21;100.00;101316.41;5000016;28;20089;-80
2022/09/12 00:16:42;;;;;;;33.70;14.02;;;12.30;99.90;;;11.19;100.00;101310.34;5001107;28;20048;-79
2022/09/12 00:19:10;;;;;;;11.85;9.15;;;12.30;99.90;;;11.19;100.00;101327.03;5001227;28;20033;-80
2022/09/12 00:21:38;;;;;;;23.80;13.15;;;12.30;99.90;;;11.20;100.00;101319.97;5000651;28;20040;-80
2022/09/12 00:24:08;;;;;;;28.20;14.68;;;12.40;99.90;;;11.23;100.00;101312.81;5000653;28;20116;-80
2022/09/12 00:26:34;;;;;;;30.08;14.57;;;12.40;99.90;;;11.31;100.00;101316.91;4998892;28;20099;-80
2022/09/12 00:29:00;;;;;;;31.08;15.40;;;12.40;99.90;;;11.34;100.00;101317.66;5002492;28;20079;-79
2022/09/12 00:31:26;;;;;;;16.27;9.63;;;12.50;99.90;;;11.43;100.00;101321.69;4984530;28;20026;-80
2022/09/12 00:33:59;;;;;;;15.50;9.55;;;12.50;99.90;;;11.45;100.00;101320.69;4983770;28;20125;-79
2022/09/12 00:36:26;;;;;;;27.75;11.93;;;12.50;99.90;;;11.41;100.00;101320.91;4999534;28;20033;-80
2022/09/12 00:38:53;;;;;;;70.10;13.07;;;12.50;99.90;;;11.40;100.00;101321.78;5000535;28;20044;-80
2022/09/12 00:41:42;;;;;;;389.25;30.20;;;12.50;99.90;;;11.39;100.00;101315.66;4999382;28;20030;-79
2022/09/12 00:44:11;;;;;;;56.08;11.15;;;12.50;99.90;;;11.39;100.00;101320.09;5001056;28;20022;-80
2022/09/12 00:47:04;;;;;;;36.30;11.98;;;12.50;99.90;;;11.39;100.00;101314.81;5017601;28;20034;-80
2022/09/12 00:49:30;;;;;;;19.75;11.30;;;12.50;99.90;;;11.33;100.00;101305.38;5013259;28;20097;-79
2022/09/12 00:52:15;;;;;;;24.17;11.23;;;12.40;99.90;;;11.31;100.00;101307.22;5017587;28;20108;-80
2022/09/12 00:55:03;;;;;;;9.93;7.78;;;12.40;99.90;;;11.29;100.00;101302.03;4990546;28;20025;-79
2022/09/12 00:58:02;;;;;;;13.63;9.07;;;12.40;99.90;;;11.28;100.00;101302.06;4998712;28;20041;-79
2022/09/12 01:00:28;;;;;;;17.25;9.13;;;12.40;99.90;;;11.25;100.00;101300.44;4981249;28;20046;-80
2022/09/12 01:03:04;;;;;;;73.93;11.48;;;12.40;99.90;;;11.26;100.00;101303.91;4997760;28;20053;-80
2022/09/12 01:05:35;;;;;;;66.22;13.65;;;12.30;99.90;;;11.22;100.00;101291.78;4994848;28;20117;-79
2022/09/12 01:08:10;;;;;;;43.40;11.43;;;12.90;99.90;;;11.20;100.00;101299.72;5000701;28;20036;-79
2022/09/12 01:10:39;;;;;;;793.67;18.25;;;12.30;99.90;;;11.16;100.00;101298.13;4998891;28;20033;-80
2022/09/12 01:13:10;;;;;;;1048.38;17.52;;;12.20;99.90;;;10.98;100.00;101294.47;4997682;28;20029;-80
2022/09/12 01:15:38;;;;;;;238.65;8.50;;;12.10;99.90;;;10.87;100.00;101297.50;4981849;28;20034;-80
2022/09/12 01:18:34;;;;;;;942.58;18.35;;;12.00;99.90;;;10.82;100.00;101304.75;5001000;28;20042;-80
2022/09/12 01:21:27;;;;;;;312.87;9.43;;;11.90;99.90;;;10.72;100.00;101298.09;5013890;28;20029;-79
2022/09/12 01:24:25;;;;;;;312.20;10.60;;;11.80;99.90;;;10.64;100.00;101303.66;4997684;28;20364;-80
2022/09/12 01:27:18;;;;;;;9.40;4.22;;;11.80;99.90;;;10.59;100.00;101297.72;4980979;28;20058;-79
2022/09/12 01:30:04;;;;;;;4.35;3.35;;;11.70;99.90;;;10.56;100.00;101304.84;5013875;28;20486;-80
2022/09/12 01:32:45;;;;;;;5.50;3.55;;;;;;;10.53;100.00;101297.09;4997829;28;20028;-79
2022/09/12 01:35:55;;;;;;;7.75;5.20;;;11.70;99.90;;;10.51;100.00;101291.00;5014232;28;20038;-80
2022/09/12 01:39:06;;;;;;;5.05;4.38;;;11.60;99.90;;;10.49;100.00;101295.47;4923677;29;20050;-79
2022/09/12 01:42:09;;;;;;;17.17;9.02;;;11.60;99.90;;;10.48;100.00;101294.63;4912567;29;20092;-79
2022/09/12 01:45:01;;;;;;;22.13;10.85;;;11.70;99.90;;;10.45;100.00;101286.81;4997218;28;20044;-80
2022/09/12 01:47:40;;;;;;;11.90;7.05;;;11.70;99.90;;;10.49;100.00;101291.06;4998282;28;20034;-80
2022/09/12 01:50:17;;;;;;;33.05;8.85;;;11.70;99.90;;;10.52;100.00;101287.44;4979752;28;20029;-80
2022/09/12 01:52:53;;;;;;;186.98;14.20;;;11.60;99.90;;;10.54;100.00;101282.97;5015760;28;20117;-80
2022/09/12 01:55:36;;;;;;;11.75;6.65;;;11.60;99.90;;;10.55;100.00;101279.44;4997654;28;20176;-80
2022/09/12 01:58:14;;;;;;;14.57;7.35;;;11.70;99.90;;;10.58;100.00;101287.22;4997691;28;20026;-81
2022/09/12 02:00:58;;;;;;;25.65;8.38;;;11.70;99.90;;;10.60;100.00;101288.03;4997486;28;20029;-80
2022/09/12 02:03:35;;;;;;;59.70;9.32;;;11.70;99.90;;;10.60;100.00;101288.88;4981721;28;20024;-80
2022/09/12 02:06:09;;;;;;;30.33;8.00;;;11.70;99.90;;;10.64;100.00;101289.63;4999441;28;20034;-80
2022/09/12 02:09:00;;;;;;;182.95;11.73;;;11.80;99.90;;;10.69;100.00;101287.69;4995418;28;20458;-80
2022/09/12 02:11:28;;;;;;;9.88;7.72;;;11.80;99.90;;;10.74;100.00;101293.63;4997981;28;20113;-80
2022/09/12 02:14:06;;;;;;;212.52;17.52;;;11.80;99.90;;;10.78;100.00;101295.25;4995378;28;20036;-79
2022/09/12 02:16:58;;;;;;;188.20;14.85;;;11.90;99.90;;;10.88;100.00;101293.97;5001303;28;20502;-80
2022/09/12 02:19:35;;;;;;;134.30;16.65;;;12.00;99.90;;;10.96;100.00;101295.44;4998776;28;20030;-80
2022/09/12 02:22:03;;;;;;;23.38;12.40;;;12.10;99.90;;;11.04;100.00;101296.00;5013536;28;20041;-79
2022/09/12 02:24:41;;;;;;;129.13;16.35;;;12.10;99.90;;;11.12;100.00;101293.06;4995875;28;20494;-80
2022/09/12 02:27:16;;;;;;;126.65;15.45;;;12.20;99.90;;;11.19;100.00;101292.75;4998217;28;20081;-80
2022/09/12 02:29:43;;;;;;;22.70;13.05;;;12.30;99.90;;;11.23;100.00;101296.09;4998268;28;20049;-80
2022/09/12 02:32:28;;;;;;;382.88;22.65;;;12.30;99.90;;;11.27;100.00;101284.53;4996948;28;20479;-80
2022/09/12 02:35:18;;;;;;;266.58;19.00;;;12.40;99.90;;;11.30;100.00;101284.41;5013066;28;20018;-80
2022/09/12 02:37:56;;;;;;;581.30;25.23;;;12.40;99.90;;;11.29;100.00;101287.97;4996277;28;20100;-81
2022/09/12 02:40:24;;;;;;;713.60;33.17;;;12.40;99.90;;;11.26;100.00;101294.22;5015281;28;20030;-80
2022/09/12 02:42:51;;;;;;;590.03;32.72;;;12.30;99.90;;;11.27;100.00;101295.06;4997203;28;20024;-79
2022/09/12 02:45:17;;;;;;;478.55;29.13;;;12.40;99.90;;;11.24;100.00;101293.41;4996404;28;20435;-80
2022/09/12 02:48:14;;;;;;;495.85;28.88;;;12.40;99.90;;;11.22;100.00;101297.03;4994299;28;20033;-80
2022/09/12 02:50:43;;;;;;;73.05;15.70;;;12.30;99.90;;;11.21;100.00;101303.22;5012243;28;20057;-79
2022/09/12 02:53:12;;;;;;;242.00;20.55;;;12.30;99.90;;;11.16;100.00;101298.13;5013568;28;20030;-80
2022/09/12 02:55:40;;;;;;;510.55;33.00;;;12.30;99.90;;;11.17;100.00;101297.22;4987250;28;20042;-79
2022/09/12 02:58:18;;;;;;;51.97;18.48;;;12.30;99.90;;;11.19;100.00;101294.53;4994379;28;20033;-80
2022/09/12 03:01:12;;;;;;;44.00;17.02;;;12.30;99.90;;;11.23;100.00;101297.00;4992788;28;20573;-79
2022/09/12 03:04:22;;;;;;;34.17;19.75;;;12.30;99.90;;;11.30;100.00;101302.88;5013364;28;20026;-80
2022/09/12 03:07:05;;;;;;;209.20;26.70;;;12.40;99.90;;;11.33;100.00;101294.81;4983745;28;20034;-79
2022/09/12 03:09:44;;;;;;;97.63;21.75;;;12.40;99.90;;;11.36;100.00;101288.56;5012650;28;20025;-79
2022/09/12 03:13:06;;;;;;;30.50;18.05;;;12.40;99.90;;;11.37;100.00;101292.94;4994368;28;20029;-79
2022/09/12 03:16:01;;;;;;;31.67;18.92;;;12.40;99.90;;;11.35;100.00;101286.84;4959920;28;20042;-80
2022/09/12 03:18:43;;;;;;;280.77;31.88;;;12.40;99.90;;;11.37;100.00;101295.56;5012790;28;20398;-81
2022/09/12 03:21:59;;;;;;;25.48;17.90;;;12.40;99.90;;;11.35;100.00;101290.34;4994360;28;20026;-80
2022/09/12 03:24:31;;;;;;;978.67;43.38;;;12.40;99.90;;;11.31;100.00;101283.47;5014941;28;20049;-80
2022/09/12 03:27:35;;;;;;;560.80;32.10;;;12.40;99.90;;;11.28;100.00;101295.00;4997927;28;20026;-80
2022/09/12 03:30:06;;;;;;;24.17;17.20;;;12.40;99.90;;;11.28;100.00;101291.53;5018107;28;20112;-80
2022/09/12 03:32:54;;;;;;;30.65;18.73;;;12.40;99.90;;;11.29;100.00;101293.22;4998086;28;20034;-79
2022/09/12 03:35:23;;;;;;;136.55;23.80;;;12.40;99.90;;;11.31;100.00;101290.53;4999033;28;20515;-80
2022/09/12 03:37:51;;;;;;;344.05;29.90;;;12.40;99.90;;;11.33;100.00;101293.97;4999866;28;20243;-80
2022/09/12 03:40:20;;;;;;;335.02;24.17;;;12.40;99.90;;;11.34;100.00;101298.31;5000950;28;20172;-79
2022/09/12 03:42:46;;;;;;;27.25;15.68;;;12.40;99.90;;;11.35;100.00;101305.31;4982640;28;20061;-80
2022/09/12 03:45:13;;;;;;;749.05;37.00;;;12.40;99.90;;;11.35;100.00;101305.31;5004348;28;20037;-81
2022/09/12 03:47:39;;;;;;;355.38;23.90;;;12.40;99.90;;;11.34;100.00;101300.94;5018649;28;20018;-81
2022/09/12 03:50:08;;;;;;;34.13;15.32;;;12.40;99.90;;;11.34;100.00;101300.94;5010462;28;20030;-80
2022/09/12 03:52:41;;;;;;;25.35;15.50;;;12.40;99.90;;;11.37;100.00;101311.38;5007731;28;20033;-81
2022/09/12 03:55:07;;;;;;;412.50;23.35;;;12.40;99.90;;;11.36;100.00;101315.81;5007861;28;20029;-81
2022/09/12 03:57:33;;;;;;;226.43;24.00;;;12.40;99.90;;;11.36;100.00;101315.81;4988446;28;20045;-81
2022/09/12 03:59:59;;;;;;;53.33;15.10;;;12.40;99.90;;;11.34;100.00;101306.22;5005641;28;20454;-80
2022/09/12 04:02:30;;;;;;;22.67;15.57;;;12.40;99.90;;;11.34;100.00;101316.75;5007664;28;20061;-80
2022/09/12 04:04:56;;;;;;;27.25;16.77;;;12.40;99.90;;;11.33;100.00;101315.91;5006819;28;20737;-81
2022/09/12 04:07:22;;;;;;;273.10;24.75;;;12.40;99.90;;;11.33;100.00;101315.91;4988927;28;20117;-80
2022/09/12 04:09:48;;;;;;;387.55;30.52;;;12.40;99.90;;;11.34;100.00;101319.41;5023109;28;20534;-80
2022/09/12 04:12:13;;;;;;;268.63;26.60;;;12.40;99.90;;;11.35;100.00;101318.50;5021602;28;20467;-80
2022/09/12 04:14:39;;;;;;;177.40;21.95;;;12.40;99.90;;;11.34;100.00;101316.75;5006289;28;20117;-80
2022/09/12 04:17:11;;;;;;;462.33;30.52;;;12.40;99.90;;;11.36;100.00;101325.47;5026567;23;20049;-81
2022/09/12 04:19:37;;;;;;;261.17;23.13;;;12.40;99.90;;;11.35;100.00;101313.22;5022355;28;20026;-81
2022/09/12 04:22:03;;;;;;;37.85;18.00;;;12.40;99.90;;;11.34;100.00;101316.75;5020831;28;20089;-81
2022/09/12 04:24:29;;;;;;;346.70;24.60;;;12.40;99.90;;;11.32;100.00;101308.06;5021018;28;20029;-80
2022/09/12 04:27:03;;;;;;;117.55;17.30;;;12.40;99.90;;;11.29;100.00;101314.31;5020642;28;20029;-80
2022/09/12 04:29:30;;;;;;;248.85;22.25;;;12.40;99.90;;;11.26;100.00;101303.91;5024278;28;20123;-80
2022/09/12 04:31:56;;;;;;;29.63;15.75;;;12.40;99.90;;;11.24;100.00;101296.06;5015593;28;20034;-81
2022/09/12 04:34:22;;;;;;;270.95;22.85;;;12.30;99.90;;;11.23;100.00;101304.00;5005767;28;20112;-80
2022/09/12 04:36:48;;;;;;;72.78;16.13;;;12.30;99.90;;;11.21;100.00;101304.09;5023583;28;20026;-80
2022/09/12 04:39:23;;;;;;;24.23;14.30;;;12.30;99.90;;;11.22;100.00;101308.44;5041022;28;20045;-81
2022/09/12 04:41:49;;;;;;;18.50;12.65;;;12.30;99.90;;;11.22;100.00;101311.06;5017725;28;20405;-80
2022/09/12 04:44:15;;;;;;;202.68;20.90;;;12.30;99.90;;;11.24;100.00;101306.59;5008519;28;20025;-81
2022/09/12 04:46:47;;;;;;;79.78;14.98;;;12.30;99.90;;;11.25;100.00;101312.72;5005201;28;20029;-81
2022/09/12 04:49:15;;;;;;;30.20;13.93;;;12.30;99.90;;;11.22;100.00;101315.50;5004275;28;20033;-81
2022/09/12 04:51:41;;;;;;;32.05;13.63;;;12.30;99.90;;;11.19;100.00;101319.13;5023868;28;20025;-80
2022/09/12 04:54:17;;;;;;;18.88;12.43;;;12.30;99.90;;;11.20;100.00;101317.34;5007034;28;20029;-81
2022/09/12 04:56:47;;;;;;;17.65;11.65;;;12.30;99.90;;;11.19;100.00;101313.00;5023015;28;20043;-81
2022/09/12 04:59:22;;;;;;;17.95;11.40;;;12.30;99.90;;;11.20;100.00;101319.97;5005498;28;20041;-81
2022/09/12 05:01:49;;;;;;;14.77;11.50;;;12.30;99.90;;;11.24;100.00;101313.66;5014619;28;20033;-81
2022/09/12 05:04:15;;;;;;;53.83;13.77;;;12.30;99.90;;;11.29;100.00;101314.31;5024007;28;20044;-81
2022/09/12 05:06:48;;;;;;;437.95;30.38;;;12.30;99.90;;;11.33;100.00;101318.56;5022124;28;20401;-80
2022/09/12 05:09:15;;;;;;;150.55;17.73;;;12.30;99.90;;;11.33;100.00;101321.19;5017654;28;20085;-81
2022/09/12 05:11:43;;;;;;;207.43;17.52;;;12.40;99.90;;;11.38;100.00;101318.38;5022981;28;20056;-80
2022/09/12 05:14:14;;;;;;;21.00;12.95;;;12.40;99.90;;;11.45;100.00;101317.22;5007298;28;20030;-81
2022/09/12 05:16:40;;;;;;;32.20;13.85;;;12.50;99.90;;;11.56;100.00;101314.13;5031158;23;20037;-81
2022/09/12 05:19:06;;;;;;;482.33;27.67;;;12.50;99.90;;;11.63;100.00;101320.88;5018250;28;20104;-81
2022/09/12 05:21:32;;;;;;;191.23;18.63;;;12.60;99.90;;;11.70;100.00;101322.31;5021993;28;20448;-82
2022/09/12 05:24:08;;;;;;;17.65;12.57;;;12.70;99.90;;;11.85;100.00;101326.09;5021583;28;20531;-81
2022/09/12 05:26:34;;;;;;;;;;;12.70;99.90;;;11.99;100.00;101328.19;5021244;28;20025;-81
2022/09/12 05:29:00;;;;;;;113.23;18.87;;;12.90;99.90;;;12.08;100.00;101331.28;5033426;28;20015;-82
2022/09/12 05:31:27;;;;;;;30.05;15.27;;;13.00;99.90;;;12.20;100.00;101337.81;5018428;28;20025;-82
2022/09/12 05:33:59;;;;;;;235.88;21.65;;;13.10;99.90;;;12.33;100.00;101340.75;5021733;28;20056;-81
2022/09/12 05:38:53;;;;;;;117.57;23.27;;;13.30;99.90;;;12.51;100.00;101347.03;5039194;28;20042;-81
2022/09/12 05:41:30;;;;;;;77.45;21.83;;;13.40;99.90;;;12.75;100.00;101342.41;5021534;28;20477;-82
2022/09/12 05:44:02;;;;;;;38.13;19.10;;;13.60;99.90;;;13.23;100.00;101343.69;5007750;28;20037;-82
2022/09/12 05:46:39;;;;;;;115.05;23.50;;;14.00;99.90;;;13.67;100.00;101340.69;5020879;28;20469;-82
2022/09/12 05:49:10;;;;;;;239.25;27.10;;;14.20;99.90;;;13.89;100.00;101353.72;5016435;28;20033;-82
2022/09/12 05:51:43;;;;;;;174.52;23.58;;;14.30;99.90;;;13.65;100.00;101349.63;4996106;28;20022;-82
2022/09/12 05:54:14;;;;;;;216.63;26.48;;;14.30;99.90;;;13.47;100.00;101346.09;5013821;28;20567;-82
2022/09/12 05:56:43;;;;;;;297.52;28.98;;;14.30;99.90;;;13.33;100.00;101352.06;5023117;23;20038;-81
2022/09/12 05:59:20;;;;;;;166.63;23.02;;;14.20;99.90;;;13.23;100.00;101348.97;5041789;28;20034;-82
2022/09/12 06:01:47;;;;;;;228.23;26.40;;;14.10;99.90;;;13.24;100.00;101350.69;5033651;28;20489;-82
2022/09/12 06:04:13;;;;;;;35.70;17.83;;;14.10;99.90;;;13.45;100.00;101351.47;5041600;28;20116;-82
2022/09/12 06:06:47;;;;;;;200.68;25.73;;;14.20;99.90;;;13.91;100.00;101348.34;5039558;28;20023;-82
2022/09/12 06:09:15;;;;;;;141.88;22.30;;;14.50;99.90;;;14.32;100.00;101355.94;5024422;28;20044;-82
2022/09/12 06:11:41;;;;;;;23.50;15.90;;;14.80;99.90;;;14.73;100.00;101352.94;5033940;28;20474;-81
2022/09/12 06:14:12;;;;;;;17.67;13.93;;;15.10;99.90;;;15.22;100.00;101362.63;5025228;28;20040;-81
2022/09/12 06:16:39;;;;;;;25.33;15.18;;;15.50;99.90;;;15.64;100.00;101361.97;5033359;28;21673;-81
2022/09/12 06:19:16;;;;;;;20.38;14.32;;;15.80;99.90;;;15.90;100.00;101362.31;5030013;28;20029;-82
2022/09/12 06:21:42;;;;;;;18.00;13.57;;;16.20;99.90;;;16.29;99.01;101369.69;5026879;28;20025;-81
2022/09/12 06:24:08;;;;;;;78.78;15.48;;;16.50;99.90;;;16.45;96.45;101364.28;5036604;28;20024;-80
2022/09/12 06:26:34;;;;;;;115.53;16.48;;;16.70;99.90;;;16.33;95.75;101365.91;5032878;28;20556;-81
2022/09/12 06:29:00;;;;;;;91.22;16.13;;;16.70;99.90;;;16.09;95.81;101360.25;5031413;28;20037;-81
2022/09/12 06:31:37;;;;;;;32.60;14.40;;;16.70;99.90;;;15.91;96.54;101362.19;5027503;28;20077;-81
2022/09/12 06:34:06;;;;;;;114.45;17.70;;;16.60;99.90;;;15.90;97.93;101363.16;5018235;28;20476;-81
2022/09/12 06:36:39;;;;;;;101.57;19.70;;;16.60;99.90;;;16.11;98.21;101366.34;5034020;22;20029;-81
2022/09/12 06:39:12;;;;;;;65.15;16.70;;;16.70;99.90;;;16.40;98.00;101371.69;5020182;28;20033;-81
2022/09/12 06:41:43;;;;;;;45.10;16.08;;;17.00;99.90;;;16.87;96.04;101364.41;5015769;28;20049;-81
2022/09/12 06:44:14;;;;;;;68.38;16.05;;;17.30;99.90;;;17.85;91.47;101370.53;5015699;28;20034;-81
2022/09/12 06:46:47;;;;;;;204.75;20.42;;;17.80;99.90;;;17.96;89.20;101371.50;5012659;28;20026;-80
2022/09/12 06:49:16;;;;;;;51.65;14.45;;;18.10;99.90;;;18.67;87.71;101371.13;4989950;28;20034;-82
2022/09/12 06:51:42;;;;;;;47.03;14.02;;;18.60;99.90;;;19.75;82.33;101369.56;5030739;28;20032;-80
2022/09/12 06:54:11;;;;;;;14.95;12.02;;;19.20;99.90;;;19.78;80.30;101364.81;5009342;28;20021;-81
2022/09/12 06:56:40;;;;;;;16.48;12.35;;;19.70;99.90;;;20.62;78.11;101376.22;5012951;28;20026;-81
2022/09/12 06:59:05;;;;;;;17.92;12.40;;;20.40;99.90;;;21.66;74.46;101385.72;5003881;28;20072;-82
2022/09/12 07:01:32;;;;;;;33.35;12.07;;;20.90;99.90;;;20.77;75.90;101376.84;5005439;28;20031;-82
2022/09/12 07:04:03;;;;;;;13.38;11.18;;;20.80;99.90;;;20.13;77.93;101381.81;5013642;28;20033;-81
2022/09/12 07:06:35;;;;;;;13.23;11.18;;;20.60;99.90;;;19.62;79.71;101381.13;5009134;28;20486;-81
2022/09/12 07:09:08;;;;;;;18.30;12.88;;;20.20;99.90;;;19.17;81.60;101378.19;5008746;28;20133;-81
2022/09/12 07:11:39;;;;;;;34.50;12.98;;;19.90;99.90;;;18.85;83.37;101378.72;5007041;28;20028;-81
2022/09/12 07:14:08;;;;;;;23.88;12.65;;;19.70;99.90;;;18.73;84.76;101376.03;5003252;28;20026;-82
2022/09/12 07:16:42;;;;;;;56.22;12.80;;;19.50;99.90;;;18.73;85.22;101376.03;5012813;23;20052;-81
2022/09/12 07:19:09;;;;;;;191.27;14.40;;;19.40;99.90;;;18.69;85.35;101382.53;5018198;28;20589;-81
2022/09/12 07:21:38;;;;;;;34.67;11.63;;;19.40;99.90;;;18.72;85.43;101374.31;5018629;28;20112;-81
2022/09/12 07:24:08;;;;;;;34.15;11.85;;;19.40;99.90;;;18.96;84.88;101375.28;5018400;28;20040;-82
2022/09/12 07:26:34;;;;;;;191.68;15.95;;;19.50;99.90;;;19.22;83.74;101375.19;5002545;28;20022;-82
2022/09/12 07:29:00;;;;;;;115.13;12.77;;;19.60;99.90;;;19.18;83.65;101376.38;5003502;28;20030;-81
2022/09/12 07:31:27;;;;;;;126.10;14.77;;;19.60;99.90;;;19.11;84.06;101377.81;5018643;28;20060;-82
2022/09/12 07:33:58;;;;;;;81.32;12.85;;;19.70;99.90;;;19.56;83.15;101384.25;5019080;28;20044;-81
2022/09/12 07:36:26;;;;;;;26.75;12.43;;;19.90;99.90;;;20.05;80.49;101383.28;5025472;22;20120;31
2022/09/12 07:38:59;;;;;;;17.88;11.60;;;20.40;99.90;;;20.61;78.54;101382.56;5014505;28;20044;-81
2022/09/12 07:41:28;;;;;;;12.13;10.93;;;20.80;99.90;;;21.11;77.08;101387.53;5014065;28;20057;-82
2022/09/12 07:43:59;;;;;;;30.30;11.15;;;21.30;99.90;;;21.87;74.40;101387.56;5005705;28;20060;-81
2022/09/12 07:46:29;;;;;;;41.90;11.68;;;22.10;99.90;;;23.43;69.71;101399.13;5018663;28;20065;-81
2022/09/12 07:48:58;;;;;;;11.23;9.73;;;22.20;99.90;;;24.52;67.19;101397.16;4999159;28;20026;-82
2022/09/12 07:51:27;;;;;;;10.10;9.10;;;24.50;99.90;;;26.31;62.34;101397.44;5015220;28;20060;-81
2022/09/12 07:53:59;;;;;;;26.65;9.05;;;25.80;99.90;;;26.36;61.19;101396.94;5019121;28;20120;-81
2022/09/12 07:58:55;;;;;;;10.82;9.02;;;26.20;99.90;;;25.70;61.99;101401.78;5014388;28;20483;-83
2022/09/12 08:01:26;;;;;;;9.77;8.63;;;26.10;99.90;;;25.95;61.22;101402.03;4989719;28;20030;-82
2022/09/12 08:03:56;;;;;;;10.15;8.90;;;26.30;99.90;;;26.26;60.59;101394.34;5008406;28;20030;-82
2022/09/12 08:06:23;;;;;;;19.30;10.38;;;26.30;99.90;;;25.16;61.95;101399.00;4991816;28;20123;-81
2022/09/12 08:08:55;;;;;;;11.57;10.25;;;25.80;99.90;;;24.45;64.01;101398.69;5019373;28;20101;-82
2022/09/12 08:11:23;;;;;;;11.52;10.32;;;25.30;99.90;;;24.64;64.23;101406.72;5021355;28;20465;-82
2022/09/12 08:13:51;;;;;;;12.18;9.10;;;25.10;99.90;;;24.60;64.39;101401.78;5018008;28;20025;-81
2022/09/12 08:16:23;;;;;;;10.63;9.40;;;25.30;99.90;;;25.36;62.46;101399.75;5004707;28;20029;-82
2022/09/12 08:18:49;;;;;;;10.93;8.60;;;25.60;99.90;;;25.27;62.24;101408.75;4997997;28;20029;-82
2022/09/12 08:21:19;;;;;;;13.00;10.13;;;25.60;99.90;;;25.23;62.82;101411.91;5021222;28;20028;-82
2022/09/12 08:23:57;;;;;;;11.10;9.57;;;25.70;99.90;;;25.41;62.52;101410.06;5020999;28;20092;-82
2022/09/12 08:26:23;;;;;;;12.00;9.43;;;25.90;99.90;;;25.74;62.23;101408.53;5019825;28;20039;-82
2022/09/12 08:28:57;;;;;;;11.80;8.55;;;26.40;99.90;;;26.49;60.10;101401.91;5022501;28;20021;-83
2022/09/12 08:31:25;;;;;;;8.57;7.68;;;27.30;99.90;;;27.31;58.38;101411.28;5006404;28;20022;-83
2022/09/12 08:33:59;;;;;;;7.78;6.97;;;28.10;99.90;;;28.02;57.12;101417.19;5014616;28;20394;-82
2022/09/12 08:36:28;;;;;;;8.20;7.30;;;28.90;99.90;;;28.57;56.03;101411.03;4997612;28;20033;-83
2022/09/12 08:39:07;;;;;;;6.97;5.90;;;29.30;99.90;;;28.60;54.53;101410.69;5020802;28;20143;-82
2022/09/12 08:42:40;;;;;;;7.05;6.03;;;29.50;99.90;;;29.01;54.36;101412.44;5020601;28;20025;-82
2022/09/12 08:45:46;;;;;;;6.40;5.80;;;29.70;99.90;;;28.72;53.85;101413.88;5009600;28;20022;-83
2022/09/12 08:48:13;;;;;;;5.50;3.70;;;29.20;99.90;;;27.96;54.34;101415.97;5024555;28;20417;-82
2022/09/12 08:50:43;;;;;;;7.55;4.80;;;28.70;99.90;;;27.74;55.29;101411.22;5021402;28;20025;-82
2022/09/12 08:53:17;;;;;;;7.13;4.35;;;28.50;99.90;;;27.86;55.65;101411.75;5020746;28;20044;-83
2022/09/12 08:55:57;;;;;;;7.70;3.70;;;28.20;99.90;;;27.18;56.79;101411.72;5011785;28;20072;-82
2022/09/12 08:58:34;;;;;;;4.45;3.90;;;28.00;99.90;;;27.42;56.85;101412.84;5021748;28;20036;-82
2022/09/12 09:01:38;;;;;;;4.80;2.58;;;28.00;99.90;;;27.53;57.72;101409.81;5022373;28;20469;-82
2022/09/12 09:04:31;;;;;;;3.65;2.08;;;27.70;99.90;;;26.86;56.37;101404.34;5022111;28;20049;-82
2022/09/12 09:07:37;;;;;;;2.53;1.63;;;27.00;99.90;;;25.66;57.01;101399.53;5037981;28;20045;-82
2022/09/12 09:10:29;;;;;;;1.98;1.50;;;26.20;99.90;;;24.99;58.94;101397.09;5039413;28;20036;-82
2022/09/12 09:14:46;;;;;;;1.95;1.30;;;25.50;99.90;;;24.52;60.55;101394.47;5018865;28;20041;-82
2022/09/12 09:18:56;;;;;;;1.50;1.40;;;24.70;99.90;;;24.05;62.88;101389.00;5042754;22;20042;-82
2022/09/12 09:21:47;;;;;;;2.58;1.33;;;24.70;99.90;;;24.06;64.48;101390.69;5018756;28;20025;-82
2022/09/12 09:24:23;;;;;;;2.15;1.00;;;24.70;99.90;;;24.27;62.31;101385.97;5012636;28;20041;-82
2022/09/12 09:26:56;;;;;;;2.97;1.25;;;24.80;99.90;;;24.37;61.03;101380.59;5000840;28;20697;-82
2022/09/12 09:29:52;;;;;;;1.33;0.88;;;24.90;99.90;;;24.50;60.51;101380.28;5018025;28;20035;-83
2022/09/12 09:33:03;;;;;;;1.63;1.10;;;25.00;99.90;;;24.65;60.96;101386.06;4995335;28;20080;-83
2022/09/12 09:36:00;;;;;;;1.58;1.20;;;25.10;99.90;;;24.75;60.17;101390.41;5005458;28;20037;-82
2022/09/12 09:38:49;;;;;;;2.47;1.10;;;25.20;99.90;;;24.83;59.87;101395.03;5043372;23;20056;-82
2022/09/12 09:41:54;;;;;;;1.63;1.05;;;25.30;99.90;;;24.82;58.69;101392.50;5031668;28;20045;-82
2022/09/12 09:44:24;;;;;;;1.65;1.08;;;25.40;99.90;;;24.89;60.16;101390.91;5057638;28;20079;-83
2022/09/12 09:47:23;;;;;;;1.08;0.80;;;25.40;99.90;;;24.95;59.46;101393.03;5031692;28;20033;-83
2022/09/12 09:50:00;;;;;;;2.47;1.00;;;25.40;99.90;;;24.62;59.35;101381.81;5012719;28;20022;-82
2022/09/12 09:52:31;;;;;;;0.85;0.65;;;25.30;99.90;;;24.69;59.38;101385.63;5007664;28;20042;-83
2022/09/12 09:55:14;;;;;;;2.03;0.60;;;25.30;99.90;;;24.73;58.54;101381.63;5011085;28;20041;-82
2022/09/12 09:57:45;;;;;;;1.30;0.60;;;25.40;99.90;;;24.74;58.41;101385.16;5009220;28;20047;-82
2022/09/12 10:00:29;;;;;;;1.35;0.85;;;25.30;99.90;;;24.64;58.29;101381.66;4991893;28;20037;-82
2022/09/12 10:03:04;;;;;;;0.95;0.70;;;25.30;99.90;;;24.63;58.56;101386.19;5007715;28;20025;-83
2022/09/12 10:05:55;;;;;;;1.10;0.80;;;25.30;99.90;;;24.51;58.54;101373.91;5008178;28;20041;-83
2022/09/12 10:08:38;;;;;;;1.02;0.60;;;25.20;99.90;;;24.43;58.48;101385.38;4992961;28;20049;-82
2022/09/12 10:11:27;;;;;;;0.77;0.60;;;25.10;99.90;;;24.40;58.14;101380.28;5008816;28;20033;-82
2022/09/12 10:13:56;;;;;;;0.85;0.60;;;25.00;99.90;;;24.31;57.97;101383.84;5007269;28;20464;-82
2022/09/12 10:16:35;;;;;;;1.45;0.70;;;25.00;99.90;;;24.06;57.31;101382.59;4991945;28;20461;-82
2022/09/12 10:19:08;;;;;;;0.63;0.60;;;24.90;99.90;;;24.20;57.98;101382.16;4990469;28;20042;-81
2022/09/12 10:21:47;;;;;;;2.30;0.68;;;24.90;99.90;;;24.11;57.71;101378.50;5007551;28;20128;-82
2022/09/12 10:24:36;;;;;;;0.68;0.50;;;24.90;99.90;;;24.18;57.64;101378.78;5008645;28;20057;-83
2022/09/12 10:27:27;;;;;;;0.50;0.47;;;24.90;99.90;;;24.35;58.83;101372.66;4993249;28;20046;-82
2022/09/12 10:30:03;;;;;;;0.85;0.30;;;25.10;99.90;;;24.61;56.93;101374.72;5008953;28;20202;-83
2022/09/12 10:32:53;;;;;;;2.25;0.50;;;25.10;99.90;;;24.84;56.99;101368.94;5004361;28;20026;-82
2022/09/12 10:35:41;;;;;;;0.52;0.47;;;25.40;99.90;;;24.97;54.93;101374.84;5005070;28;20081;-82
2022/09/12 10:38:37;;;;;;;1.45;0.60;;;25.60;99.90;;;25.14;55.90;101368.66;5022069;28;20033;-83
2022/09/12 10:41:19;;;;;;;1.45;0.57;;;25.70;99.90;;;25.26;55.39;101374.72;4992181;28;20634;-82